sensor_id;sensor_type;location;lat;lon;timestamp;P1;durP1;ratioP1;P2;durP2;ratioP2
41943;SDS011;27636;52.610;13.244;2023-02-24T04:28:59;20.80;;;2.33;;
41943;SDS011;27636;52.610;13.244;2023-02-24T04:34:03;5.53;;;2.72;;
41943;SDS011;27636;52.610;13.244;2023-02-24T04:39:14;15.10;;;3.22;;
41943;SDS011;27636;52.610;13.244;2023-02-24T04:44:24;10.85;;;2.70;;
41943;SDS011;27636;52.610;13.244;2023-02-24T04:49:29;11.73;;;1.63;;
41943;SDS011;27636;52.610;13.244;2023-02-24T04:54:33;5.38;;;2.05;;
41943;SDS011;27636;52.610;13.244;2023-02-24T04:59:37;7.07;;;1.88;;
41943;SDS011;27636;52.610;13.244;2023-02-24T05:04:42;12.10;;;2.53;;
41943;SDS011;27636;52.610;13.244;2023-02-24T05:09:45;6.82;;;1.95;;
41943;SDS011;27636;52.610;13.244;2023-02-24T05:14:51;5.13;;;2.08;;
41943;SDS011;27636;52.610;13.244;2023-02-24T05:19:56;3.70;;;1.77;;
41943;SDS011;27636;52.610;13.244;2023-02-24T05:25:19;8.40;;;1.70;;
41943;SDS011;27636;52.610;13.244;2023-02-24T05:30:25;2.58;;;0.68;;
41943;SDS011;27636;52.610;13.244;2023-02-24T05:35:28;4.75;;;2.08;;
41943;SDS011;27636;52.610;13.244;2023-02-24T05:40:34;9.45;;;1.67;;
41943;SDS011;27636;52.610;13.244;2023-02-24T05:45:39;20.40;;;1.48;;
41943;SDS011;27636;52.610;13.244;2023-02-24T05:50:50;13.95;;;2.15;;
41943;SDS011;27636;52.610;13.244;2023-02-24T05:55:53;4.20;;;1.00;;
41943;SDS011;27636;52.610;13.244;2023-02-24T06:00:58;6.75;;;1.30;;
41943;SDS011;27636;52.610;13.244;2023-02-24T06:06:09;1.90;;;1.30;;
41943;SDS011;27636;52.610;13.244;2023-02-24T06:11:12;6.18;;;1.23;;
41943;SDS011;27636;52.610;13.244;2023-02-24T06:16:18;7.80;;;1.23;;
41943;SDS011;27636;52.610;13.244;2023-02-24T06:21:21;2.75;;;1.13;;
41943;SDS011;27636;52.610;13.244;2023-02-24T06:26:25;6.45;;;1.77;;
41943;SDS011;27636;52.610;13.244;2023-02-24T06:31:33;8.18;;;1.63;;
41943;SDS011;27636;52.610;13.244;2023-02-24T06:36:37;8.63;;;2.28;;
41943;SDS011;27636;52.610;13.244;2023-02-24T06:41:41;5.75;;;0.90;;
41943;SDS011;27636;52.610;13.244;2023-02-24T06:46:46;7.28;;;1.13;;
41943;SDS011;27636;52.610;13.244;2023-02-24T06:51:50;6.97;;;0.73;;
41943;SDS011;27636;52.610;13.244;2023-02-24T06:56:54;2.53;;;1.10;;
41943;SDS011;27636;52.610;13.244;2023-02-24T07:02:00;3.88;;;1.30;;
41943;SDS011;27636;52.610;13.244;2023-02-24T07:07:05;5.18;;;0.77;;
41943;SDS011;27636;52.610;13.244;2023-02-24T07:12:09;7.10;;;1.50;;
41943;SDS011;27636;52.610;13.244;2023-02-24T07:17:16;7.30;;;1.38;;
41943;SDS011;27636;52.610;13.244;2023-02-24T07:22:21;3.50;;;1.00;;
41943;SDS011;27636;52.610;13.244;2023-02-24T07:27:27;5.10;;;3.00;;
41943;SDS011;27636;52.610;13.244;2023-02-24T07:32:32;4.55;;;1.35;;
41943;SDS011;27636;52.610;13.244;2023-02-24T07:37:36;2.70;;;0.98;;
41943;SDS011;27636;52.610;13.244;2023-02-24T07:42:39;3.50;;;1.23;;
41943;SDS011;27636;52.610;13.244;2023-02-24T07:47:45;5.55;;;1.45;;
41943;SDS011;27636;52.610;13.244;2023-02-24T07:52:49;5.70;;;1.48;;
41943;SDS011;27636;52.610;13.244;2023-02-24T07:57:53;3.80;;;1.53;;
41943;SDS011;27636;52.610;13.244;2023-02-24T08:02:58;4.38;;;1.30;;
41943;SDS011;27636;52.610;13.244;2023-02-24T08:08:02;11.50;;;1.90;;
41943;SDS011;27636;52.610;13.244;2023-02-24T08:13:05;1.33;;;0.85;;
41943;SDS011;27636;52.610;13.244;2023-02-24T08:18:10;12.55;;;1.88;;
41943;SDS011;27636;52.610;13.244;2023-02-24T08:23:15;6.63;;;2.20;;
41943;SDS011;27636;52.610;13.244;2023-02-24T08:28:20;4.97;;;1.45;;
41943;SDS011;27636;52.610;13.244;2023-02-24T08:33:30;6.13;;;1.48;;
41943;SDS011;27636;52.610;13.244;2023-02-24T08:38:34;3.22;;;1.40;;
41943;SDS011;27636;52.610;13.244;2023-02-24T08:43:46;6.10;;;1.40;;
41943;SDS011;27636;52.610;13.244;2023-02-24T08:48:52;18.00;;;2.78;;
41943;SDS011;27636;52.610;13.244;2023-02-24T08:53:58;11.38;;;1.40;;
41943;SDS011;27636;52.610;13.244;2023-02-24T08:59:04;8.57;;;1.80;;
41943;SDS011;27636;52.610;13.244;2023-02-24T09:04:10;5.15;;;1.70;;
41943;SDS011;27636;52.610;13.244;2023-02-24T09:09:16;8.70;;;1.83;;
41943;SDS011;27636;52.610;13.244;2023-02-24T09:14:23;10.32;;;1.95;;
41943;SDS011;27636;52.610;13.244;2023-02-24T09:19:34;4.28;;;1.90;;
41943;SDS011;27636;52.610;13.244;2023-02-24T09:24:42;6.03;;;1.80;;
41943;SDS011;27636;52.610;13.244;2023-02-24T09:29:46;7.38;;;1.92;;
41943;SDS011;27636;52.610;13.244;2023-02-24T09:34:54;8.82;;;1.42;;
41943;SDS011;27636;52.610;13.244;2023-02-24T09:39:58;3.92;;;1.38;;
41943;SDS011;27636;52.610;13.244;2023-02-24T09:45:22;3.85;;;1.10;;
41943;SDS011;27636;52.610;13.244;2023-02-24T09:50:37;3.95;;;1.67;;
41943;SDS011;27636;52.610;13.244;2023-02-24T09:56:14;7.60;;;1.92;;
41943;SDS011;27636;52.610;13.244;2023-02-24T10:01:28;1.35;;;0.88;;
41943;SDS011;27636;52.610;13.244;2023-02-24T10:06:46;6.93;;;1.67;;
41943;SDS011;27636;52.610;13.244;2023-02-24T10:11:52;4.05;;;1.23;;
41943;SDS011;27636;52.610;13.244;2023-02-24T10:17:09;3.33;;;1.20;;
41943;SDS011;27636;52.610;13.244;2023-02-24T10:22:30;2.10;;;1.05;;
41943;SDS011;27636;52.610;13.244;2023-02-24T10:27:51;3.95;;;1.00;;
41943;SDS011;27636;52.610;13.244;2023-02-24T10:33:01;5.18;;;1.38;;
41943;SDS011;27636;52.610;13.244;2023-02-24T10:38:08;4.70;;;1.17;;
41943;SDS011;27636;52.610;13.244;2023-02-24T10:43:14;4.03;;;1.13;;
41943;SDS011;27636;52.610;13.244;2023-02-24T10:48:21;4.72;;;1.85;;
41943;SDS011;27636;52.610;13.244;2023-02-24T10:53:47;6.30;;;0.73;;
41943;SDS011;27636;52.610;13.244;2023-02-24T10:59:12;4.63;;;1.27;;
41943;SDS011;27636;52.610;13.244;2023-02-24T11:04:22;7.38;;;1.42;;
41943;SDS011;27636;52.610;13.244;2023-02-24T11:09:34;3.35;;;0.82;;
41943;SDS011;27636;52.610;13.244;2023-02-24T11:14:47;2.90;;;1.38;;
41943;SDS011;27636;52.610;13.244;2023-02-24T11:20:29;3.00;;;1.52;;
41943;SDS011;27636;52.610;13.244;2023-02-24T11:25:53;6.53;;;1.58;;
41943;SDS011;27636;52.610;13.244;2023-02-24T11:31:04;2.70;;;1.13;;
41943;SDS011;27636;52.610;13.244;2023-02-24T11:36:18;2.25;;;1.27;;
41943;SDS011;27636;52.610;13.244;2023-02-24T11:41:30;4.25;;;1.02;;
41943;SDS011;27636;52.610;13.244;2023-02-24T11:46:40;8.93;;;1.88;;
41943;SDS011;27636;52.610;13.244;2023-02-24T11:51:48;3.13;;;1.60;;
41943;SDS011;27636;52.610;13.244;2023-02-24T11:56:55;7.10;;;1.80;;
41943;SDS011;27636;52.610;13.244;2023-02-24T12:02:02;3.75;;;2.17;;
41943;SDS011;27636;52.610;13.244;2023-02-24T12:07:18;5.07;;;2.05;;
41943;SDS011;27636;52.610;13.244;2023-02-24T12:12:27;5.10;;;1.52;;
41943;SDS011;27636;52.610;13.244;2023-02-24T12:17:36;4.53;;;1.65;;
41943;SDS011;27636;52.610;13.244;2023-02-24T12:22:48;4.57;;;1.40;;
41943;SDS011;27636;52.610;13.244;2023-02-24T12:27:59;3.72;;;1.70;;
41943;SDS011;27636;52.610;13.244;2023-02-24T12:33:15;3.38;;;1.15;;
41943;SDS011;27636;52.610;13.244;2023-02-24T12:38:41;3.78;;;1.30;;
41943;SDS011;27636;52.610;13.244;2023-02-24T12:43:55;2.85;;;1.38;;
41943;SDS011;27636;52.610;13.244;2023-02-24T12:49:12;5.35;;;1.17;;
41943;SDS011;27636;52.610;13.244;2023-02-24T12:54:27;2.15;;;0.95;;
41943;SDS011;27636;52.610;13.244;2023-02-24T12:59:36;1.25;;;0.90;;
41943;SDS011;27636;52.610;13.244;2023-02-24T13:04:42;4.55;;;1.30;;
41943;SDS011;27636;52.610;13.244;2023-02-24T13:09:56;1.58;;;0.95;;
41943;SDS011;27636;52.610;13.244;2023-02-24T13:15:16;3.50;;;1.20;;
41943;SDS011;27636;52.610;13.244;2023-02-24T13:20:27;2.45;;;1.23;;
41943;SDS011;27636;52.610;13.244;2023-02-24T13:25:34;3.42;;;1.15;;
41943;SDS011;27636;52.610;13.244;2023-02-24T13:30:40;5.63;;;1.85;;
41943;SDS011;27636;52.610;13.244;2023-02-24T13:35:47;3.97;;;1.65;;
41943;SDS011;27636;52.610;13.244;2023-02-24T13:40:51;7.05;;;1.83;;
41943;SDS011;27636;52.610;13.244;2023-02-24T13:45:58;4.43;;;1.95;;
41943;SDS011;27636;52.610;13.244;2023-02-24T13:51:08;3.22;;;1.48;;
41943;SDS011;27636;52.610;13.244;2023-02-24T13:56:24;3.15;;;1.73;;
41943;SDS011;27636;52.610;13.244;2023-02-24T14:01:45;5.50;;;1.70;;
41943;SDS011;27636;52.610;13.244;2023-02-24T14:06:52;7.38;;;1.75;;
41943;SDS011;27636;52.610;13.244;2023-02-24T14:11:59;8.23;;;1.63;;
41943;SDS011;27636;52.610;13.244;2023-02-24T14:17:16;10.95;;;2.65;;
41943;SDS011;27636;52.610;13.244;2023-02-24T14:22:28;3.65;;;1.45;;
41943;SDS011;27636;52.610;13.244;2023-02-24T14:27:32;3.83;;;1.70;;
41943;SDS011;27636;52.610;13.244;2023-02-24T14:32:38;5.43;;;2.83;;
41943;SDS011;27636;52.610;13.244;2023-02-24T14:37:42;5.82;;;2.20;;
41943;SDS011;27636;52.610;13.244;2023-02-24T14:42:46;7.28;;;3.08;;
41943;SDS011;27636;52.610;13.244;2023-02-24T14:52:57;3.35;;;1.83;;
41943;SDS011;27636;52.610;13.244;2023-02-24T14:58:03;8.88;;;2.17;;
41943;SDS011;27636;52.610;13.244;2023-02-24T15:03:15;3.88;;;1.88;;
41943;SDS011;27636;52.610;13.244;2023-02-24T15:08:33;6.47;;;2.33;;
41943;SDS011;27636;52.610;13.244;2023-02-24T15:13:39;6.40;;;3.55;;
41943;SDS011;27636;52.610;13.244;2023-02-24T15:18:50;5.05;;;2.30;;
41943;SDS011;27636;52.610;13.244;2023-02-24T15:23:58;7.43;;;1.80;;
41943;SDS011;27636;52.610;13.244;2023-02-24T15:29:10;4.88;;;2.28;;
41943;SDS011;27636;52.610;13.244;2023-02-24T15:34:26;5.72;;;1.85;;
41943;SDS011;27636;52.610;13.244;2023-02-24T15:39:33;4.70;;;2.25;;
41943;SDS011;27636;52.610;13.244;2023-02-24T15:44:38;3.95;;;1.95;;
41943;SDS011;27636;52.610;13.244;2023-02-24T15:49:53;7.28;;;2.53;;
41943;SDS011;27636;52.610;13.244;2023-02-24T15:54:56;6.40;;;2.92;;
41943;SDS011;27636;52.610;13.244;2023-02-24T16:00:04;6.38;;;2.17;;
41943;SDS011;27636;52.610;13.244;2023-02-24T16:05:16;5.82;;;2.55;;
41943;SDS011;27636;52.610;13.244;2023-02-24T16:10:21;5.22;;;2.75;;
41943;SDS011;27636;52.610;13.244;2023-02-24T16:15:26;12.55;;;3.65;;
41943;SDS011;27636;52.610;13.244;2023-02-24T16:20:33;6.60;;;2.72;;
41943;SDS011;27636;52.610;13.244;2023-02-24T16:25:42;6.90;;;3.45;;
41943;SDS011;27636;52.610;13.244;2023-02-24T16:30:46;6.85;;;3.42;;
41943;SDS011;27636;52.610;13.244;2023-02-24T16:40:56;5.47;;;3.08;;
41943;SDS011;27636;52.610;13.244;2023-02-24T16:46:00;7.88;;;3.03;;
41943;SDS011;27636;52.610;13.244;2023-02-24T16:51:07;10.23;;;3.47;;
41943;SDS011;27636;52.610;13.244;2023-02-24T16:56:13;10.90;;;4.78;;
41943;SDS011;27636;52.610;13.244;2023-02-24T17:01:17;18.25;;;5.15;;
41943;SDS011;27636;52.610;13.244;2023-02-24T17:06:24;14.90;;;4.63;;
41943;SDS011;27636;52.610;13.244;2023-02-24T17:11:28;16.10;;;4.65;;
41943;SDS011;27636;52.610;13.244;2023-02-24T17:16:31;9.18;;;4.80;;
41943;SDS011;27636;52.610;13.244;2023-02-24T17:21:37;9.73;;;4.88;;
41943;SDS011;27636;52.610;13.244;2023-02-24T17:26:43;14.90;;;6.40;;
41943;SDS011;27636;52.610;13.244;2023-02-24T17:31:47;13.23;;;6.03;;
41943;SDS011;27636;52.610;13.244;2023-02-24T17:36:52;14.25;;;6.93;;
41943;SDS011;27636;52.610;13.244;2023-02-24T17:41:55;15.02;;;7.45;;
41943;SDS011;27636;52.610;13.244;2023-02-24T17:46:59;13.75;;;6.57;;
41943;SDS011;27636;52.610;13.244;2023-02-24T17:52:04;17.13;;;6.88;;
41943;SDS011;27636;52.610;13.244;2023-02-24T17:57:08;15.50;;;7.30;;
41943;SDS011;27636;52.610;13.244;2023-02-24T18:02:12;15.43;;;7.40;;
41943;SDS011;27636;52.610;13.244;2023-02-24T18:07:17;18.58;;;7.20;;
41943;SDS011;27636;52.610;13.244;2023-02-24T18:12:21;12.95;;;7.60;;
41943;SDS011;27636;52.610;13.244;2023-02-24T18:17:27;17.50;;;7.10;;
41943;SDS011;27636;52.610;13.244;2023-02-24T18:22:32;22.15;;;8.88;;
41943;SDS011;27636;52.610;13.244;2023-02-24T18:27:36;23.40;;;9.23;;
41943;SDS011;27636;52.610;13.244;2023-02-24T18:32:39;18.20;;;8.45;;
41943;SDS011;27636;52.610;13.244;2023-02-24T18:37:47;21.60;;;9.70;;
41943;SDS011;27636;52.610;13.244;2023-02-24T18:42:57;26.42;;;10.20;;
41943;SDS011;27636;52.610;13.244;2023-02-24T18:48:01;22.05;;;10.30;;
41943;SDS011;27636;52.610;13.244;2023-02-24T18:53:08;23.27;;;11.10;;
41943;SDS011;27636;52.610;13.244;2023-02-24T18:58:11;28.58;;;10.48;;
41943;SDS011;27636;52.610;13.244;2023-02-24T19:03:15;26.40;;;12.63;;
41943;SDS011;27636;52.610;13.244;2023-02-24T19:08:20;29.75;;;12.43;;
41943;SDS011;27636;52.610;13.244;2023-02-24T19:13:24;25.33;;;11.30;;
41943;SDS011;27636;52.610;13.244;2023-02-24T19:18:27;25.67;;;11.52;;
41943;SDS011;27636;52.610;13.244;2023-02-24T19:23:32;21.05;;;9.30;;
41943;SDS011;27636;52.610;13.244;2023-02-24T19:28:35;26.95;;;11.93;;
41943;SDS011;27636;52.610;13.244;2023-02-24T19:33:38;33.10;;;11.93;;
41943;SDS011;27636;52.610;13.244;2023-02-24T19:38:43;23.52;;;10.82;;
41943;SDS011;27636;52.610;13.244;2023-02-24T19:43:47;30.70;;;12.55;;
41943;SDS011;27636;52.610;13.244;2023-02-24T19:48:50;21.13;;;11.30;;
41943;SDS011;27636;52.610;13.244;2023-02-24T19:53:56;27.25;;;11.63;;
41943;SDS011;27636;52.610;13.244;2023-02-24T19:59:00;27.38;;;13.30;;
41943;SDS011;27636;52.610;13.244;2023-02-24T20:04:06;30.58;;;12.88;;
41943;SDS011;27636;52.610;13.244;2023-02-24T20:09:11;25.42;;;11.05;;
41943;SDS011;27636;52.610;13.244;2023-02-24T20:14:19;34.50;;;12.23;;
41943;SDS011;27636;52.610;13.244;2023-02-24T20:19:22;28.85;;;12.23;;
41943;SDS011;27636;52.610;13.244;2023-02-24T20:24:28;26.70;;;11.80;;
41943;SDS011;27636;52.610;13.244;2023-02-24T20:29:31;22.52;;;11.10;;
41943;SDS011;27636;52.610;13.244;2023-02-24T20:34:37;30.73;;;12.00;;
41943;SDS011;27636;52.610;13.244;2023-02-24T20:39:42;31.10;;;12.80;;
41943;SDS011;27636;52.610;13.244;2023-02-24T20:44:45;27.92;;;12.55;;
41943;SDS011;27636;52.610;13.244;2023-02-24T20:49:48;24.50;;;11.02;;
41943;SDS011;27636;52.610;13.244;2023-02-24T20:54:54;27.33;;;11.60;;
41943;SDS011;27636;52.610;13.244;2023-02-24T20:59:57;31.13;;;13.02;;
41943;SDS011;27636;52.610;13.244;2023-02-24T21:05:06;29.48;;;11.02;;
41943;SDS011;27636;52.610;13.244;2023-02-24T21:10:11;28.80;;;11.90;;
41943;SDS011;27636;52.610;13.244;2023-02-24T21:15:16;25.25;;;11.38;;
41943;SDS011;27636;52.610;13.244;2023-02-24T21:20:19;25.65;;;10.80;;
41943;SDS011;27636;52.610;13.244;2023-02-24T21:25:24;27.45;;;12.50;;
41943;SDS011;27636;52.610;13.244;2023-02-24T21:30:29;25.17;;;10.68;;
41943;SDS011;27636;52.610;13.244;2023-02-24T21:35:33;25.92;;;12.43;;
41943;SDS011;27636;52.610;13.244;2023-02-24T21:40:38;35.28;;;11.90;;
41943;SDS011;27636;52.610;13.244;2023-02-24T21:45:42;27.60;;;12.68;;
41943;SDS011;27636;52.610;13.244;2023-02-24T21:50:55;22.70;;;10.13;;
41943;SDS011;27636;52.610;13.244;2023-02-24T21:56:04;26.23;;;10.00;;
41943;SDS011;27636;52.610;13.244;2023-02-24T22:01:13;26.40;;;10.35;;
41943;SDS011;27636;52.610;13.244;2023-02-24T22:06:19;25.95;;;8.48;;
41943;SDS011;27636;52.610;13.244;2023-02-24T22:11:24;20.42;;;9.07;;
41943;SDS011;27636;52.610;13.244;2023-02-24T22:16:28;31.98;;;10.40;;
41943;SDS011;27636;52.610;13.244;2023-02-24T22:21:32;21.95;;;9.57;;
41943;SDS011;27636;52.610;13.244;2023-02-24T22:26:37;17.92;;;8.10;;
41943;SDS011;27636;52.610;13.244;2023-02-24T22:31:41;15.90;;;5.95;;
41943;SDS011;27636;52.610;13.244;2023-02-24T22:36:51;20.67;;;6.72;;
41943;SDS011;27636;52.610;13.244;2023-02-24T22:41:56;12.30;;;4.80;;
41943;SDS011;27636;52.610;13.244;2023-02-24T22:47:00;16.10;;;5.78;;
41943;SDS011;27636;52.610;13.244;2023-02-24T22:52:03;11.52;;;5.47;;
41943;SDS011;27636;52.610;13.244;2023-02-24T22:57:08;21.65;;;5.95;;
41943;SDS011;27636;52.610;13.244;2023-02-24T23:02:14;17.83;;;6.03;;
41943;SDS011;27636;52.610;13.244;2023-02-24T23:07:17;18.55;;;5.53;;
41943;SDS011;27636;52.610;13.244;2023-02-24T23:12:22;21.48;;;4.50;;
41943;SDS011;27636;52.610;13.244;2023-02-24T23:17:26;16.00;;;3.45;;
41943;SDS011;27636;52.610;13.244;2023-02-24T23:22:29;13.77;;;3.30;;
41943;SDS011;27636;52.610;13.244;2023-02-24T23:27:33;21.13;;;3.17;;
41943;SDS011;27636;52.610;13.244;2023-02-24T23:32:39;11.63;;;2.60;;
41943;SDS011;27636;52.610;13.244;2023-02-24T23:37:45;7.18;;;3.70;;
41943;SDS011;27636;52.610;13.244;2023-02-24T23:42:50;14.65;;;3.08;;
41943;SDS011;27636;52.610;13.244;2023-02-24T23:52:58;22.42;;;4.88;;
41943;SDS011;27636;52.610;13.244;2023-02-24T23:58:06;20.17;;;2.08;;
